createdAt,value
2023-04-30T00:00:12.143Z,6.10
2023-04-30T00:02:39.184Z,5.90
2023-04-30T00:05:06.250Z,5.00
2023-04-30T00:07:33.330Z,5.30
2023-04-30T00:10:00.709Z,5.00
2023-04-30T00:12:28.358Z,5.10
2023-04-30T00:14:55.786Z,5.10
2023-04-30T00:17:23.877Z,4.90
2023-04-30T00:19:51.225Z,5.30
2023-04-30T00:22:18.025Z,5.70
2023-04-30T00:24:45.607Z,5.10
2023-04-30T00:27:12.394Z,5.20
2023-04-30T00:29:39.304Z,5.10
2023-04-30T00:32:06.183Z,5.30
2023-04-30T00:34:33.318Z,5.20
2023-04-30T00:37:00.645Z,5.60
2023-04-30T00:39:27.833Z,5.00
2023-04-30T00:41:54.879Z,5.70
2023-04-30T00:44:21.757Z,5.60
2023-04-30T00:46:48.647Z,5.30
2023-04-30T00:49:15.651Z,5.30
2023-04-30T00:51:42.532Z,5.50
2023-04-30T00:54:09.336Z,6.20
2023-04-30T00:56:36.372Z,6.00
2023-04-30T00:59:03.262Z,6.00
2023-04-30T01:01:30.224Z,5.90
2023-04-30T01:03:58.863Z,4.90
2023-04-30T01:06:26.955Z,4.90
2023-04-30T01:08:55.029Z,5.00
2023-04-30T01:11:22.858Z,5.00
2023-04-30T01:13:57.825Z,5.60
2023-04-30T01:16:32.964Z,5.80
2023-04-30T01:19:11.313Z,5.50
2023-04-30T01:21:40.909Z,5.10
2023-04-30T01:24:13.689Z,5.10
2023-04-30T01:26:57.551Z,5.60
2023-04-30T01:29:24.606Z,5.30
2023-04-30T01:31:51.610Z,5.00
2023-04-30T01:34:19.107Z,5.30
2023-04-30T01:36:57.838Z,5.70
2023-04-30T01:39:24.617Z,5.90
2023-04-30T01:41:57.698Z,5.40
2023-04-30T01:44:25.312Z,5.80
2023-04-30T01:47:04.161Z,5.40
2023-04-30T01:49:46.350Z,6.10
2023-04-30T01:52:33.389Z,6.00
2023-04-30T01:55:00.602Z,5.70
2023-04-30T01:57:28.406Z,5.10
2023-04-30T01:59:55.436Z,4.80
2023-04-30T02:02:22.665Z,4.50
2023-04-30T02:04:50.047Z,5.30
2023-04-30T02:07:18.831Z,4.90
2023-04-30T02:09:45.726Z,5.50
2023-04-30T02:12:12.747Z,6.30
2023-04-30T02:14:40.106Z,5.50
2023-04-30T02:17:07.113Z,5.60
2023-04-30T02:20:18.764Z,6.00
2023-04-30T02:22:45.951Z,5.90
2023-04-30T02:25:14.251Z,6.30
2023-04-30T02:27:41.269Z,5.90
2023-04-30T02:30:09.949Z,5.40
2023-04-30T02:32:37.157Z,5.40
2023-04-30T02:35:04.130Z,5.40
2023-04-30T02:37:31.057Z,5.50
2023-04-30T02:39:58.544Z,5.70
2023-04-30T02:42:25.687Z,5.90
2023-04-30T02:44:52.682Z,6.40
2023-04-30T02:47:19.804Z,6.50
2023-04-30T02:49:46.692Z,6.30
2023-04-30T02:52:13.618Z,6.20
2023-04-30T02:54:40.669Z,5.40
2023-04-30T02:57:07.742Z,5.70
2023-04-30T02:59:34.701Z,6.10
2023-04-30T03:02:01.795Z,6.10
2023-04-30T03:04:28.714Z,6.80
2023-04-30T03:06:55.715Z,6.60
2023-04-30T03:09:22.760Z,6.80
2023-04-30T03:11:49.695Z,6.60
2023-04-30T03:14:16.623Z,6.50
2023-04-30T03:16:43.674Z,6.70
2023-04-30T03:19:12.137Z,6.00
2023-04-30T03:21:39.357Z,6.20
2023-04-30T03:24:06.742Z,6.40
2023-04-30T03:26:33.644Z,6.40
2023-04-30T03:29:01.336Z,6.30
2023-04-30T03:31:28.255Z,6.30
2023-04-30T03:33:55.210Z,7.10
2023-04-30T03:36:22.729Z,6.60
2023-04-30T03:38:49.832Z,6.50
2023-04-30T03:41:16.764Z,6.10
2023-04-30T03:43:43.767Z,6.40
2023-04-30T03:46:10.685Z,5.50
2023-04-30T03:48:37.566Z,5.90
2023-04-30T03:51:04.755Z,5.50
2023-04-30T03:53:31.693Z,5.80
2023-04-30T03:55:58.944Z,5.40
2023-04-30T03:58:26.878Z,4.90
2023-04-30T04:00:54.068Z,5.60
2023-04-30T04:03:21.175Z,5.30
2023-04-30T04:05:49.649Z,4.80
2023-04-30T04:08:17.909Z,4.10
2023-04-30T04:10:44.798Z,4.40
2023-04-30T04:13:11.954Z,4.30
2023-04-30T04:15:39.004Z,4.40
2023-04-30T04:18:08.156Z,5.10
2023-04-30T04:20:35.151Z,4.90
2023-04-30T04:23:02.643Z,4.40
2023-04-30T04:25:29.506Z,4.10
2023-04-30T04:27:56.544Z,4.20
2023-04-30T04:30:23.484Z,4.10
2023-04-30T04:32:54.122Z,4.20
2023-04-30T04:35:21.619Z,3.90
2023-04-30T04:37:48.680Z,4.20
2023-04-30T04:40:15.612Z,3.80
2023-04-30T04:42:43.822Z,4.00
2023-04-30T04:45:12.312Z,4.00
2023-04-30T04:47:39.469Z,3.60
2023-04-30T04:50:07.969Z,3.30
2023-04-30T04:52:35.536Z,3.40
2023-04-30T04:55:02.654Z,3.80
2023-04-30T04:57:29.636Z,3.50
2023-04-30T04:59:57.057Z,2.80
2023-04-30T05:02:24.295Z,3.00
2023-04-30T05:04:51.692Z,2.70
2023-04-30T05:07:19.582Z,2.70
2023-04-30T05:09:49.421Z,2.50
2023-04-30T05:12:16.572Z,2.80
2023-04-30T05:14:44.086Z,2.40
2023-04-30T05:17:11.178Z,2.50
2023-04-30T05:19:38.109Z,2.50
2023-04-30T05:22:05.570Z,2.90
2023-04-30T05:24:32.468Z,2.60
2023-04-30T05:26:59.469Z,2.90
2023-04-30T05:29:26.461Z,3.10
2023-04-30T05:31:53.434Z,2.90
2023-04-30T05:34:20.430Z,3.50
2023-04-30T05:36:47.333Z,3.20
2023-04-30T05:39:14.764Z,3.10
2023-04-30T05:41:41.726Z,3.20
2023-04-30T05:44:09.081Z,3.40
2023-04-30T05:46:36.019Z,3.00
2023-04-30T05:49:02.986Z,3.30
2023-04-30T05:51:29.976Z,2.80
2023-04-30T05:53:58.573Z,3.30
2023-04-30T05:56:25.597Z,2.70
2023-04-30T05:58:52.789Z,2.80
2023-04-30T06:01:20.811Z,2.90
2023-04-30T06:03:47.716Z,2.70
2023-04-30T06:06:15.998Z,3.10
2023-04-30T06:08:45.941Z,2.70
2023-04-30T06:11:13.071Z,2.70
2023-04-30T06:13:40.037Z,2.50
2023-04-30T06:16:09.529Z,2.70
2023-04-30T06:18:36.572Z,3.00
2023-04-30T06:21:03.650Z,2.90
2023-04-30T06:23:30.570Z,3.60
2023-04-30T06:25:57.579Z,3.60
2023-04-30T06:28:24.645Z,3.10
2023-04-30T06:30:52.256Z,2.80
2023-04-30T06:33:19.195Z,3.00
2023-04-30T06:35:46.517Z,3.00
2023-04-30T06:38:14.089Z,3.20
2023-04-30T06:40:41.324Z,3.20
2023-04-30T06:43:08.209Z,3.20
2023-04-30T06:45:35.703Z,3.40
2023-04-30T06:48:02.671Z,3.10
2023-04-30T06:50:31.184Z,2.80
2023-04-30T06:52:58.078Z,3.80
2023-04-30T06:55:25.106Z,2.80
2023-04-30T06:57:52.303Z,3.00
2023-04-30T07:00:19.378Z,2.20
2023-04-30T07:02:48.233Z,1.90
2023-04-30T07:05:16.340Z,1.90
2023-04-30T07:07:43.691Z,1.90
2023-04-30T07:10:10.837Z,2.70
2023-04-30T07:12:37.818Z,2.40
2023-04-30T07:15:04.808Z,2.50
2023-04-30T07:17:31.811Z,2.70
2023-04-30T07:19:58.936Z,2.60
2023-04-30T07:22:25.835Z,2.60
2023-04-30T07:24:52.761Z,2.20
2023-04-30T07:27:19.640Z,2.50
2023-04-30T07:29:46.561Z,2.10
2023-04-30T07:32:13.502Z,2.90
2023-04-30T07:34:40.536Z,2.80
2023-04-30T07:37:09.148Z,2.50
2023-04-30T07:39:39.289Z,2.50
2023-04-30T07:42:06.373Z,2.50
2023-04-30T07:44:33.418Z,2.50
2023-04-30T07:47:00.369Z,2.60
2023-04-30T07:49:27.390Z,2.70
2023-04-30T07:51:54.274Z,2.20
2023-04-30T07:54:21.360Z,2.40
2023-04-30T07:56:49.044Z,2.10
2023-04-30T07:59:16.228Z,1.90
2023-04-30T08:01:43.217Z,2.10
2023-04-30T08:04:10.257Z,2.50
2023-04-30T08:06:37.538Z,2.20
2023-04-30T08:09:04.898Z,2.20
2023-04-30T08:11:32.599Z,2.10
2023-04-30T08:13:59.504Z,2.20
2023-04-30T08:16:26.438Z,2.60
2023-04-30T08:18:53.401Z,2.20
2023-04-30T08:21:20.345Z,2.00
2023-04-30T08:23:47.456Z,2.40
2023-04-30T08:26:14.419Z,1.90
2023-04-30T08:28:41.303Z,2.40
2023-04-30T08:31:09.665Z,2.10
2023-04-30T08:33:36.535Z,2.30
2023-04-30T08:36:03.573Z,2.50
2023-04-30T08:38:30.530Z,2.90
2023-04-30T08:41:03.185Z,2.70
2023-04-30T08:43:30.168Z,1.90
2023-04-30T08:46:00.223Z,2.20
2023-04-30T08:48:27.320Z,2.30
2023-04-30T08:50:54.228Z,2.70
2023-04-30T08:53:21.814Z,2.30
2023-04-30T08:55:48.775Z,2.40
2023-04-30T08:58:15.754Z,2.20
2023-04-30T09:00:42.702Z,2.20
2023-04-30T09:03:10.228Z,2.70
2023-04-30T09:05:38.512Z,2.90
2023-04-30T09:08:05.790Z,2.20
2023-04-30T09:10:32.912Z,2.00
2023-04-30T09:13:04.352Z,2.00
2023-04-30T09:15:31.784Z,2.10
2023-04-30T09:18:08.025Z,2.50
2023-04-30T09:20:35.436Z,2.30
2023-04-30T09:23:06.327Z,2.90
2023-04-30T09:25:43.676Z,2.90
2023-04-30T09:28:12.016Z,2.10
2023-04-30T09:30:39.277Z,2.60
2023-04-30T09:33:08.354Z,2.60
2023-04-30T09:35:39.124Z,2.30
2023-04-30T09:38:06.571Z,2.70
2023-04-30T09:40:37.810Z,3.00
2023-04-30T09:43:04.847Z,3.20
2023-04-30T09:45:41.848Z,2.50
2023-04-30T09:48:17.024Z,2.60
2023-04-30T09:50:47.637Z,2.40
2023-04-30T09:53:14.747Z,2.80
2023-04-30T09:55:42.794Z,2.80
2023-04-30T09:58:10.277Z,2.70
2023-04-30T10:00:37.549Z,2.70
2023-04-30T10:03:11.432Z,2.80
2023-04-30T10:05:42.526Z,2.80
2023-04-30T10:08:15.615Z,3.20
2023-04-30T10:10:43.451Z,2.60
2023-04-30T10:13:10.992Z,2.60
2023-04-30T10:15:43.620Z,2.60
2023-04-30T10:18:12.539Z,3.10
2023-04-30T10:20:39.486Z,2.70
2023-04-30T10:23:09.869Z,3.10
2023-04-30T10:25:37.708Z,2.50
2023-04-30T10:28:04.998Z,2.50
2023-04-30T10:30:32.330Z,2.60
2023-04-30T10:33:05.602Z,3.00
2023-04-30T10:35:38.743Z,2.70
2023-04-30T10:38:32.856Z,2.60
2023-04-30T10:41:01.544Z,2.70
2023-04-30T10:43:31.725Z,2.70
2023-04-30T10:45:59.619Z,2.60
2023-04-30T10:48:27.391Z,2.60
2023-04-30T10:50:57.946Z,2.50
2023-04-30T10:53:26.413Z,2.40
2023-04-30T10:56:00.702Z,2.20
2023-04-30T10:58:27.730Z,2.80
2023-04-30T11:01:22.363Z,2.60
2023-04-30T11:04:25.917Z,2.60
2023-04-30T11:06:52.860Z,2.50
2023-04-30T11:09:20.186Z,2.40
2023-04-30T11:11:48.351Z,2.80
2023-04-30T11:14:20.525Z,2.40
2023-04-30T11:16:51.355Z,2.20
2023-04-30T11:19:18.483Z,2.40
2023-04-30T11:22:04.102Z,2.40
2023-04-30T11:24:49.907Z,4.30
2023-04-30T11:27:20.533Z,2.50
2023-04-30T11:29:47.383Z,2.70
2023-04-30T11:32:14.669Z,2.70
2023-04-30T11:34:42.511Z,3.30
2023-04-30T11:37:09.483Z,3.00
2023-04-30T11:39:36.393Z,2.60
2023-04-30T11:42:03.424Z,2.80
2023-04-30T11:44:30.436Z,2.60
2023-04-30T11:46:57.434Z,2.50
2023-04-30T11:49:24.532Z,2.50
2023-04-30T11:51:52.016Z,2.20
2023-04-30T11:54:19.378Z,1.90
2023-04-30T11:56:48.594Z,2.10
2023-04-30T11:59:16.160Z,2.40
2023-04-30T12:01:43.777Z,2.60
2023-04-30T12:04:11.347Z,2.20
2023-04-30T12:06:38.424Z,2.50
2023-04-30T12:09:07.441Z,2.30
2023-04-30T12:11:34.643Z,2.20
2023-04-30T12:14:03.619Z,2.00
2023-04-30T12:16:49.444Z,2.30
2023-04-30T12:19:17.129Z,2.30
2023-04-30T12:21:47.477Z,2.60
2023-04-30T12:24:15.436Z,2.30
2023-04-30T12:26:42.562Z,2.20
2023-04-30T12:29:12.063Z,1.90
2023-04-30T12:31:41.675Z,2.50
2023-04-30T12:34:09.407Z,2.40
2023-04-30T12:36:39.196Z,2.50
2023-04-30T12:39:07.593Z,1.90
2023-04-30T12:41:38.187Z,2.40
2023-04-30T12:44:24.865Z,2.30
2023-04-30T12:47:00.734Z,1.90
2023-04-30T12:49:28.550Z,2.40
2023-04-30T12:51:59.866Z,1.90
2023-04-30T12:54:27.437Z,2.10
2023-04-30T12:57:01.641Z,2.30
2023-04-30T13:01:55.417Z,2.00
2023-04-30T13:04:22.418Z,2.00
2023-04-30T13:06:49.786Z,2.00
2023-04-30T13:09:16.691Z,2.00
2023-04-30T13:11:43.597Z,2.10
2023-04-30T13:14:11.434Z,2.20
2023-04-30T13:16:40.111Z,2.30
2023-04-30T13:19:07.402Z,2.80
2023-04-30T13:21:34.880Z,2.60
2023-04-30T13:24:01.906Z,2.30
2023-04-30T13:26:28.876Z,2.10
2023-04-30T13:28:55.800Z,2.20
2023-04-30T13:31:22.790Z,1.70
2023-04-30T13:33:49.806Z,1.50
2023-04-30T13:36:16.916Z,1.60
2023-04-30T13:38:43.775Z,1.20
2023-04-30T13:41:10.765Z,1.50
2023-04-30T13:43:42.106Z,1.70
2023-04-30T13:46:09.399Z,1.40
2023-04-30T13:48:36.526Z,1.40
2023-04-30T13:51:03.668Z,1.80
2023-04-30T13:53:30.593Z,1.10
2023-04-30T13:55:59.478Z,1.10
2023-04-30T13:58:26.456Z,1.00
2023-04-30T14:00:53.369Z,1.60
2023-04-30T14:03:20.506Z,1.40
2023-04-30T14:05:47.829Z,1.50
2023-04-30T14:08:15.095Z,1.40
2023-04-30T14:10:42.596Z,1.50
2023-04-30T14:13:10.566Z,1.20
2023-04-30T14:15:38.856Z,1.30
2023-04-30T14:18:06.094Z,1.00
2023-04-30T14:20:33.151Z,1.20
2023-04-30T14:23:02.611Z,1.40
2023-04-30T14:25:29.831Z,1.30
2023-04-30T14:27:56.745Z,1.10
2023-04-30T14:30:23.750Z,0.90
2023-04-30T14:32:50.687Z,0.90
2023-04-30T14:35:17.763Z,1.00
2023-04-30T14:38:30.936Z,0.80
2023-04-30T14:40:57.903Z,0.90
2023-04-30T14:43:26.185Z,0.90
2023-04-30T14:45:53.334Z,1.00
2023-04-30T14:48:20.347Z,0.90
2023-04-30T14:50:47.415Z,0.90
2023-04-30T14:53:14.522Z,1.10
2023-04-30T14:55:42.032Z,1.10
2023-04-30T14:58:08.943Z,1.00
2023-04-30T15:00:35.887Z,0.90
2023-04-30T15:03:03.683Z,1.00
2023-04-30T15:05:30.720Z,0.90
2023-04-30T15:07:57.613Z,1.20
2023-04-30T15:10:24.599Z,1.10
2023-04-30T15:12:51.637Z,0.90
2023-04-30T15:15:19.025Z,1.10
2023-04-30T15:17:46.819Z,1.00
2023-04-30T15:20:13.841Z,0.90
2023-04-30T15:22:40.751Z,1.00
2023-04-30T15:25:09.446Z,0.90
2023-04-30T15:27:37.035Z,0.80
2023-04-30T15:30:04.183Z,1.00
2023-04-30T15:32:31.553Z,1.00
2023-04-30T15:34:58.485Z,0.90
2023-04-30T15:37:25.792Z,0.80
2023-04-30T15:39:52.949Z,0.80
2023-04-30T15:42:20.130Z,1.00
2023-04-30T15:44:47.119Z,1.20
2023-04-30T15:47:14.101Z,1.10
2023-04-30T15:49:41.031Z,1.20
2023-04-30T15:52:08.013Z,1.00
2023-04-30T15:54:34.884Z,1.50
2023-04-30T15:57:03.161Z,1.30
2023-04-30T15:59:30.159Z,1.50
2023-04-30T16:01:57.434Z,1.20
2023-04-30T16:04:24.368Z,1.00
2023-04-30T16:06:51.585Z,1.00
2023-04-30T16:09:20.601Z,1.20
2023-04-30T16:11:47.567Z,1.10
2023-04-30T16:14:14.505Z,1.10
2023-04-30T16:16:41.496Z,1.40
2023-04-30T16:19:09.634Z,2.10
2023-04-30T16:21:38.777Z,1.80
2023-04-30T16:24:06.196Z,1.90
2023-04-30T16:26:35.014Z,2.00
2023-04-30T16:29:02.141Z,1.60
2023-04-30T16:31:29.071Z,1.30
2023-04-30T16:33:56.094Z,1.40
2023-04-30T16:36:23.034Z,1.50
2023-04-30T16:38:50.103Z,1.50
2023-04-30T16:41:17.937Z,1.40
2023-04-30T16:43:45.927Z,1.30
2023-04-30T16:46:13.042Z,1.30
2023-04-30T16:48:40.206Z,1.50
2023-04-30T16:51:07.881Z,1.20
2023-04-30T16:53:34.794Z,1.60
2023-04-30T16:56:01.812Z,1.70
2023-04-30T16:58:28.755Z,1.30
2023-04-30T17:00:58.727Z,1.30
2023-04-30T17:03:25.857Z,1.20
2023-04-30T17:05:52.954Z,1.30
2023-04-30T17:08:22.802Z,1.70
2023-04-30T17:10:49.671Z,1.60
2023-04-30T17:13:16.805Z,1.50
2023-04-30T17:15:43.943Z,1.40
2023-04-30T17:18:11.525Z,1.50
2023-04-30T17:20:41.882Z,1.50
2023-04-30T17:23:08.805Z,1.70
2023-04-30T17:25:36.277Z,1.50
2023-04-30T17:28:03.766Z,1.50
2023-04-30T17:30:30.641Z,1.60
2023-04-30T17:32:58.771Z,1.90
2023-04-30T17:35:25.726Z,1.80
2023-04-30T17:37:53.298Z,2.20
2023-04-30T17:40:20.257Z,2.10
2023-04-30T17:42:47.631Z,2.30
2023-04-30T17:45:14.584Z,2.30
2023-04-30T17:47:41.526Z,2.30
2023-04-30T17:50:10.420Z,2.40
2023-04-30T17:52:39.293Z,2.10
2023-04-30T17:55:09.428Z,2.40
2023-04-30T17:57:36.553Z,2.50
2023-04-30T18:00:04.988Z,1.90
2023-04-30T18:02:40.658Z,2.30
2023-04-30T18:05:07.986Z,2.30
2023-04-30T18:07:35.423Z,2.30
2023-04-30T18:10:02.500Z,2.20
2023-04-30T18:12:29.406Z,2.10
2023-04-30T18:14:56.389Z,2.60
2023-04-30T18:17:23.349Z,2.10
2023-04-30T18:19:50.255Z,2.20
2023-04-30T18:22:17.304Z,2.40
2023-04-30T18:24:44.244Z,1.90
2023-04-30T18:27:11.265Z,2.10
2023-04-30T18:29:38.317Z,2.20
2023-04-30T18:32:05.580Z,1.90
2023-04-30T18:34:32.716Z,1.80
2023-04-30T18:37:00.484Z,1.80
2023-04-30T18:39:27.798Z,2.10
2023-04-30T18:41:54.745Z,1.60
2023-04-30T18:44:28.289Z,1.80
2023-04-30T18:46:55.874Z,1.40
2023-04-30T18:49:22.802Z,1.70
2023-04-30T18:51:50.207Z,1.20
2023-04-30T18:54:17.696Z,1.20
2023-04-30T18:56:45.408Z,1.00
2023-04-30T18:59:12.599Z,1.10
2023-04-30T19:01:39.680Z,0.90
2023-04-30T19:04:07.021Z,0.90
2023-04-30T19:06:34.683Z,1.10
2023-04-30T19:09:01.820Z,0.90
2023-04-30T19:11:28.772Z,1.00
2023-04-30T19:13:55.977Z,1.10
2023-04-30T19:16:22.989Z,1.00
2023-04-30T19:18:50.468Z,0.80
2023-04-30T19:21:17.686Z,0.90
2023-04-30T19:23:44.620Z,1.00
2023-04-30T19:26:11.494Z,1.20
2023-04-30T19:28:38.584Z,0.90
2023-04-30T19:31:06.199Z,0.80
2023-04-30T19:33:38.478Z,0.80
2023-04-30T19:36:05.808Z,0.90
2023-04-30T19:38:32.703Z,1.10
2023-04-30T19:40:59.930Z,1.10
2023-04-30T19:43:26.978Z,1.10
2023-04-30T19:45:54.652Z,1.50
2023-04-30T19:48:22.078Z,1.20
2023-04-30T19:50:49.295Z,1.30
2023-04-30T19:53:16.686Z,1.40
2023-04-30T19:55:43.909Z,1.10
2023-04-30T19:58:11.069Z,1.50
2023-04-30T20:00:38.688Z,1.10
2023-04-30T20:03:06.952Z,1.00
2023-04-30T20:05:34.616Z,1.00
2023-04-30T20:08:03.534Z,0.90
2023-04-30T20:10:31.152Z,1.30
2023-04-30T20:12:58.298Z,1.30
2023-04-30T20:15:25.285Z,1.70
2023-04-30T20:17:52.303Z,1.70
2023-04-30T20:20:25.902Z,1.70
2023-04-30T20:22:53.641Z,1.70
2023-04-30T20:25:21.043Z,1.90
2023-04-30T20:27:48.441Z,2.00
2023-04-30T20:30:15.408Z,1.30
2023-04-30T20:32:42.482Z,1.40
2023-04-30T20:35:09.480Z,1.40
2023-04-30T20:37:36.640Z,1.40
2023-04-30T20:40:04.070Z,1.50
2023-04-30T20:42:31.111Z,1.30
2023-04-30T20:44:58.182Z,1.70
2023-04-30T20:47:25.138Z,1.30
2023-04-30T20:49:52.206Z,1.30
2023-04-30T20:52:19.191Z,1.40
2023-04-30T20:54:46.366Z,1.20
2023-04-30T20:57:13.279Z,1.20
2023-04-30T20:59:40.303Z,1.50
2023-04-30T21:02:08.297Z,1.40
2023-04-30T21:04:35.389Z,1.50
2023-04-30T21:07:02.259Z,1.70
2023-04-30T21:09:29.258Z,1.50
2023-04-30T21:11:56.653Z,1.40
2023-04-30T21:14:25.597Z,1.70
2023-04-30T21:16:52.615Z,1.80
2023-04-30T21:19:19.591Z,1.80
2023-04-30T21:21:46.839Z,1.40
2023-04-30T21:24:13.803Z,1.60
2023-04-30T21:26:40.864Z,1.60
2023-04-30T21:29:08.142Z,1.70
2023-04-30T21:31:37.332Z,1.50
2023-04-30T21:34:05.306Z,1.80
2023-04-30T21:36:32.169Z,1.60
2023-04-30T21:38:59.517Z,1.20
2023-04-30T21:41:28.256Z,1.60
2023-04-30T21:43:55.252Z,1.40
2023-04-30T21:46:22.919Z,1.20
2023-04-30T21:48:50.112Z,1.10
2023-04-30T21:51:17.287Z,1.50
2023-04-30T21:53:44.597Z,1.30
2023-04-30T21:56:11.763Z,1.30
2023-04-30T21:58:38.851Z,1.00
2023-04-30T22:01:05.838Z,1.30
2023-04-30T22:03:33.748Z,1.20
2023-04-30T22:06:00.872Z,1.30
2023-04-30T22:08:28.182Z,1.20
2023-04-30T22:10:55.764Z,1.30
2023-04-30T22:13:23.033Z,1.30
2023-04-30T22:15:50.672Z,1.30
2023-04-30T22:18:17.673Z,1.40
2023-04-30T22:20:45.154Z,1.20
2023-04-30T22:23:12.483Z,1.30
2023-04-30T22:25:39.465Z,1.00
2023-04-30T22:28:06.676Z,1.20
2023-04-30T22:30:33.779Z,1.00
2023-04-30T22:33:02.201Z,1.20
2023-04-30T22:35:29.104Z,1.00
2023-04-30T22:37:56.009Z,1.20
2023-04-30T22:40:22.975Z,1.30
2023-04-30T22:42:49.954Z,1.40
2023-04-30T22:45:16.994Z,1.20
2023-04-30T22:47:45.963Z,1.40
2023-04-30T22:50:12.943Z,1.10
2023-04-30T22:52:40.758Z,1.40
2023-04-30T22:55:07.956Z,1.40
2023-04-30T22:57:34.855Z,1.30
2023-04-30T23:00:01.888Z,1.60
2023-04-30T23:02:29.031Z,1.50
2023-04-30T23:04:56.002Z,1.80
2023-04-30T23:07:22.925Z,2.00
2023-04-30T23:09:49.867Z,2.10
2023-04-30T23:12:16.712Z,2.20
2023-04-30T23:14:43.665Z,2.40
2023-04-30T23:17:10.837Z,2.50
2023-04-30T23:19:37.817Z,1.60
2023-04-30T23:22:05.453Z,1.70
2023-04-30T23:24:36.257Z,1.40
2023-04-30T23:27:03.265Z,1.40
2023-04-30T23:29:30.346Z,1.10
2023-04-30T23:31:57.470Z,0.90
2023-04-30T23:34:24.409Z,1.20
2023-04-30T23:36:51.425Z,1.10
2023-04-30T23:39:18.533Z,1.00
2023-04-30T23:41:45.490Z,1.20
2023-04-30T23:44:13.532Z,1.30
2023-04-30T23:46:42.179Z,1.30
2023-04-30T23:49:10.230Z,1.30
2023-04-30T23:51:37.387Z,1.50
2023-04-30T23:54:05.989Z,1.20
2023-04-30T23:56:37.516Z,1.60
2023-04-30T23:59:04.549Z,1.50
